• Join FlightAware (Why Join?)
  • Login
  • US Flag 
09:55PM EDT


 

Airport Tracker/Info


-or-


 

Live Flight TrackerFlight Track Log ✈ UAL252 ✈ 01-Aug-2013 ✈ KIAH - KORD

Flight Track Log - Related Links

Times and Time Zones

All times are in EDT time to prevent confusion due to time zone crossing. See the UAL252 flight status page for this flight to view local times or setup timezone preferences in your user account.

Time Position Orientation Groundspeed Altitude Reporting Facility
EDT Latitude Longitude Course Direction KTS MPH feet Rate Location/Type
09:17AM 29.9603 -95.3508 298° West 150 173 800  Level Houston Center
09:18AM 29.9708 -95.3739 298° West 160 184 2,700 1,620 Climbing Houston Center
09:19AM 30.0150 -95.3517 24° Northeast 220 253 3,800 600 Climbing Houston Center
09:20AM 30.0772 -95.3217 23° Northeast 253 291 4,000 720 Climbing Houston Center
09:21AM 30.1467 -95.2878 23° Northeast 269 310 5,400 2,640 Climbing Houston Center
09:22AM 30.2281 -95.2486 23° Northeast 263 303 9,500 2,700 Climbing Houston Center
09:23AM 30.3044 -95.2147 21° North 289 333 11,100 1,440 Climbing Houston Center
09:24AM 30.4022 -95.1794 17° North 359 413 12,500 1,740 Climbing Houston Center
09:25AM 30.4978 -95.1339 22° Northeast 383 441 14,700 2,100 Climbing Houston Center
09:26AM 30.6153 -95.0578 29° Northeast 398 458 16,900 1,860 Climbing Houston Center
09:27AM 30.7178 -94.9953 28° Northeast 412 474 18,600 1,500 Climbing Houston Center
09:28AM 30.8217 -94.9306 28° Northeast 419 482 20,000 1,260 Climbing Houston Center
09:29AM 30.9278 -94.8639 28° Northeast 430 495 21,300 1,080 Climbing Houston Center
09:30AM 31.0356 -94.7956 29° Northeast 436 502 22,300 960 Climbing Houston Center
09:31AM 31.1461 -94.7247 29° Northeast 453 521 23,300 1,020 Climbing Houston Center
09:32AM 31.2786 -94.6344 30° Northeast 478 550 24,500 960 Climbing Houston Center
09:33AM 31.3900 -94.5597 30° Northeast 470 541 25,300 1,020 Climbing Houston Center
09:34AM 31.5031 -94.4817 30° Northeast 473 544 26,700 1,320 Climbing Houston Center
09:35AM 31.6364 -94.3894 30° Northeast 465 535 28,100 1,140 Climbing Houston Center
09:36AM 31.7492 -94.3114 30° Northeast 469 540 29,100 1,200 Climbing Houston Center
09:37AM 31.8608 -94.2325 31° Northeast 469 540 30,600 1,260 Climbing Houston Center
09:38AM 31.9339 -94.1822 30° Northeast 462 532 31,300 1,260 Climbing Fort Worth Center
09:39AM 32.0425 -94.1047 31° Northeast 457 526 32,700 1,320 Climbing Fort Worth Center
09:40AM 32.1472 -94.0297 31° Northeast 450 518 34,000 1,320 Climbing Fort Worth Center
09:41AM 32.2617 -93.9494 31° Northeast 441 507 35,400 1,200 Climbing Fort Worth Center
09:42AM 32.3683 -93.8742 31° Northeast 436 502 36,500 780 Climbing Fort Worth Center
09:43AM 32.4703 -93.7936 34° Northeast 436 502 37,000 240 Climbing Fort Worth Center
09:44AM 32.5747 -93.7206 31° Northeast 441 507 37,000  Level Fort Worth Center
09:45AM 32.6789 -93.6497 30° Northeast 436 502 37,000  Level Fort Worth Center
09:46AM 32.7831 -93.5711 32° Northeast 436 502 37,000  Level Fort Worth Center
09:47AM 32.8872 -93.4975 31° Northeast 441 507 37,000  Level Fort Worth Center
09:48AM 32.9956 -93.4208 31° Northeast 441 507 37,000  Level Fort Worth Center
09:49AM 33.0975 -93.3469 31° Northeast 441 507 37,000  Level Fort Worth Center
09:50AM 33.2036 -93.2700 31° Northeast 441 507 37,000  Level Fort Worth Center
09:51AM 33.3094 -93.1931 31° Northeast 441 507 37,000  Level Fort Worth Center
09:52AM 33.4308 -93.1053 31° Northeast 472 543 37,000  Level Memphis Center
09:53AM 33.5347 -93.0336 30° Northeast 455 524 37,000  Level Memphis Center
09:54AM 33.6386 -92.9569 32° Northeast 436 502 37,000  Level Memphis Center
09:55AM 33.7425 -92.8803 32° Northeast 436 502 37,000  Level Memphis Center
09:56AM 33.8461 -92.8058 31° Northeast 436 502 37,000  Level Memphis Center
09:57AM 33.9500 -92.7261 32° Northeast 436 502 37,000  Level Memphis Center
09:58AM 34.0558 -92.6511 30° Northeast 436 502 37,000  Level Memphis Center
09:59AM 34.1447 -92.5783 34° Northeast 436 502 37,000  Level Memphis Center
10:00AM 34.2483 -92.5031 31° Northeast 436 502 37,000  Level Memphis Center
10:01AM 34.3475 -92.4275 32° Northeast 431 496 37,000  Level Memphis Center
10:02AM 34.4492 -92.3494 32° Northeast 431 496 37,000  Level Memphis Center
10:03AM 34.5544 -92.2736 31° Northeast 436 502 37,000  Level Memphis Center
10:04AM 34.6581 -92.1978 31° Northeast 436 502 37,000  Level Memphis Center
10:05AM 34.7672 -92.1519 19° North 418 481 37,000  Level Memphis Center
10:06AM 34.8761 -92.1239 12° North 406 467 37,000  Level Memphis Center
10:07AM 34.9850 -92.0908 14° North 400 460 37,000  Level Memphis Center
10:08AM 35.0981 -92.0600 13° North 395 455 37,000  Level Memphis Center
10:09AM 35.2092 -92.0267 14° North 400 460 37,000  Level Memphis Center
10:10AM 35.3200 -91.9958 13° North 400 460 37,000  Level Memphis Center
10:11AM 35.4308 -91.9650 13° North 400 460 37,000  Level Memphis Center
10:12AM 35.5419 -91.9314 14° North 400 460 37,000  Level Memphis Center
10:13AM 35.6486 -91.9003 13° North 400 460 37,000  Level Memphis Center
10:14AM 35.7597 -91.8689 13° North 394 453 37,000  Level Memphis Center
10:15AM 35.8706 -91.8350 14° North 394 453 37,000  Level Memphis Center
10:16AM 35.9856 -91.8039 12° North 394 453 37,000  Level Memphis Center
10:17AM 36.0922 -91.7672 16° North 394 453 37,000  Level Memphis Center
10:18AM 36.2094 -91.7383 11° North 400 460 37,000  Level Memphis Center
10:19AM 36.3139 -91.7067 14° North 394 453 37,000  Level Memphis Center
10:20AM 36.4269 -91.6722 14° North 394 453 37,000  Level Memphis Center
10:21AM 36.5253 -91.6428 14° North 399 459 37,000  Level Memphis Center
10:23AM 36.7164 -91.5833 14° North 386 444 37,000  Level Kansas City Center
10:24AM 36.8214 -91.5508 14° North 387 445 37,000  Level Kansas City Center
10:25AM 36.9264 -91.5203 13° North 387 445 37,000  Level Kansas City Center
10:26AM 37.0239 -91.4900 14° North 389 448 37,000  Level Kansas City Center
10:27AM 37.1397 -91.4550 14° North 394 453 37,000  Level Kansas City Center
10:28AM 37.2472 -91.4217 14° North 395 455 37,000  Level Kansas City Center
10:29AM 37.3750 -91.3822 14° North 395 455 37,000  Level Kansas City Center
10:30AM 37.4806 -91.3494 14° North 393 452 37,000  Level Kansas City Center
10:31AM 37.5858 -91.3181 13° North 391 450 37,000  Level Kansas City Center
10:32AM 37.6953 -91.2847 14° North 395 455 37,000  Level Kansas City Center
10:33AM 37.8058 -91.2497 14° North 401 461 37,000  Level Kansas City Center
10:34AM 37.9150 -91.2158 14° North 404 465 37,000  Level Kansas City Center
10:35AM 38.0461 -91.1744 14° North 405 466 37,000  Level Kansas City Center
10:36AM 38.1553 -91.1408 14° North 404 465 37,000  Level Kansas City Center
10:37AM 38.2658 -91.1075 13° North 407 468 37,000  Level Kansas City Center
10:38AM 38.3747 -91.0739 14° North 405 466 37,000  Level Kansas City Center
10:40AM 38.4842 -91.0389 14° North 405 466 37,000  Level Kansas City Center
10:41AM 38.5939 -91.0047 14° North 404 465 37,000  Level Kansas City Center
10:42AM 38.7033 -90.9689 14° North 403 464 37,000 -180 Level Kansas City Center
10:43AM 38.8322 -90.8994 23° Northeast 412 474 36,700 -540 Descending Kansas City Center
10:44AM 38.9403 -90.8419 22° Northeast 416 479 36,000 -360 Descending Kansas City Center
10:45AM 39.0528 -90.7789 24° Northeast 431 496 36,000  Level Kansas City Center
10:46AM 39.1658 -90.7178 23° Northeast 436 502 36,000 -420 Level Kansas City Center
10:47AM 39.2781 -90.6567 23° Northeast 436 502 35,200 -540 Descending Kansas City Center
10:48AM 39.3903 -90.5936 23° Northeast 438 504 35,000 -540 Descending Kansas City Center
10:49AM 39.5022 -90.5317 23° Northeast 438 504 34,200 -960 Descending Kansas City Center
10:50AM 39.6350 -90.4581 23° Northeast 433 498 33,100 -600 Descending Kansas City Center
10:51AM 39.7472 -90.3947 23° Northeast 438 504 33,000 -60 Descending Kansas City Center
10:52AM 39.8464 -90.3397 23° Northeast 436 502 33,000  Level Kansas City Center
10:53AM 39.9814 -90.2636 23° Northeast 439 505 33,000  Level Kansas City Center
10:54AM 40.0919 -90.2017 23° Northeast 434 499 33,000  Level Kansas City Center
10:55AM 40.2019 -90.1394 23° Northeast 432 497 33,000  Level Kansas City Center
10:56AM 40.3028 -90.0819 24° Northeast 398 458 33,000  Level Kansas City Center
10:57AM 40.3969 -90.0283 23° Northeast 371 427 33,000 -360 Level Chicago Center
10:58AM 40.4914 -90.0319 358° North 338 389 32,400 -900 Descending Chicago Center
10:59AM 40.5864 -90.0564 349° North 341 392 31,200 -1,500 Descending Chicago Center
11:00AM 40.6922 -90.0803 350° North 376 433 29,300 -1,980 Descending Chicago Center
11:01AM 40.8022 -90.0294 19° North 422 486 27,200 -1,920 Descending Chicago Center
11:02AM 40.8950 -89.9164 43° Northeast 443 510 25,400 -1,500 Descending Chicago Center
11:03AM 40.9839 -89.8067 43° Northeast 434 499 24,100 -720 Descending Chicago Center
11:04AM 41.0708 -89.6989 43° Northeast 427 491 24,000 -360 Descending Chicago Center
11:05AM 41.1719 -89.5611 46° Northeast 434 499 23,400 -1,260 Descending Chicago Center
11:06AM 41.2297 -89.4167 62° Northeast 447 514 21,400 -1,980 Descending Chicago Center
11:07AM 41.2856 -89.2764 62° Northeast 433 498 19,400 -1,980 Descending Chicago Center
11:08AM 41.3406 -89.1386 62° Northeast 426 490 17,400 -1,980 Descending Chicago Center
11:09AM 41.3936 -89.0078 62° Northeast 408 470 15,400 -1,860 Descending Chicago Center
11:10AM 41.4444 -88.8803 62° Northeast 394 453 13,600 -2,040 Descending Chicago Center
11:11AM 41.5014 -88.7278 63° Northeast 386 444 11,300 -1,260 Descending Chicago Center
11:13AM 41.5494 -88.6061 62° Northeast 375 432 11,000 -120 Descending Chicago Center
11:14AM 41.5975 -88.4894 61° Northeast 362 417 11,100 -60 Climbing Chicago Center
11:15AM 41.6578 -88.3819 53° Northeast 362 417 10,900 -120 Descending Chicago Center
11:16AM 41.7203 -88.2750 52° Northeast 363 418 10,900 -240 Level Chicago Center
11:17AM 41.7769 -88.1767 52° Northeast 339 390 10,500 -1,020 Descending Chicago Center
11:18AM 41.8331 -88.0781 53° Northeast 294 338 8,900 -1,500 Descending Chicago Center
11:19AM 41.8542 -87.9700 75° East 298 343 7,400 -960 Descending Chicago Center
11:20AM 41.8731 -87.8625 77° East 295 339 7,000 -240 Descending Chicago Center
11:21AM 41.8836 -87.7633 82° East 270 311 7,000 -480 Level Chicago Center
11:22AM 41.8869 -87.6667 87° East 229 264 6,100 -1,200 Descending Chicago Center
11:23AM 41.9353 -87.6567 North 195 224 4,600 -1,440 Descending Chicago Center
11:24AM 41.9508 -87.7089 292° West 173 199 3,200 -1,020 Descending Chicago Center
11:26AM 41.9667 -87.8500 279° West 132 152 1,200 -840 Descending Chicago TRACON